Terminal Aerodrome Forecast
Issued by NWS

Home | Current Version | Previous Version | Graphics & Text | Print | Product List | Glossary On
Versions: 1 2 3 4 5 6 7 8 9 10 11 12 13
000
FTUS43 KBIS 022325
TAFDIK
TAF
KDIK 022325Z 0300/0324 36010KT P6SM SKC
     FM030300 02005KT P6SM SKC
     FM031700 05007KT P6SM SCT050=

USA.gov is the U.S. government's official web portal to all federal, state and local government web resources and services.